Details for Ryanair at LIMC




Go Back


Latest METAR
Local Time

LIMC 211420Z VRB03KT CAVOK 10/M06 Q1007 NOSIG

21/02/2018, 16:00:50

Description
Results
Ryanair Logo
Number of Pilots based at LIMC
0 Pilots Based here
Number of Ryanair Flights Departed from LIMC
3 Flights Departed
Number of Ryanair Flights Arrived at LIMC
2 Flights Arrived
Number of Ryanair Schedules Departing from LIMC
24 Schedules
Number of Ryanair Schedules Arriving at LIMC
25 Schedules
Number of Ryanair Schedules Departing from LIMC availible today
11 Schedules Today
Number of Ryanair Schedules Arriving at LIMC availible today
11 Schedules Today
Average Landing Rate at LIMC
-250 fpm
Ryanair Average Landing Rate at LIMC
-194 fpm
Total Fuel Purchased at LIMC by Ryanair
14,359.82 kgs / 31,657.66 lbs

Pilots Based at LIMC


Pilot ID
Pilot Name
Pilot Rank
No. of Flights
No. of Flying Hours
There are no pilots assigned to this hub!   Will you be the first?
Content